createdAt,value
2023-05-24T00:04:36.385Z,26.00
2023-05-24T00:09:41.253Z,23.50
2023-05-24T00:14:46.392Z,22.25
2023-05-24T00:19:51.271Z,25.75
2023-05-24T00:24:56.036Z,24.00
2023-05-24T00:30:00.979Z,23.25
2023-05-24T00:35:06.030Z,24.25
2023-05-24T00:40:11.540Z,24.00
2023-05-24T00:45:16.610Z,23.00
2023-05-24T00:50:22.070Z,25.75
2023-05-24T00:55:28.265Z,22.00
2023-05-24T01:00:34.260Z,18.00
2023-05-24T01:05:39.290Z,25.50
2023-05-24T01:10:56.910Z,23.25
2023-05-24T01:16:03.310Z,27.75
2023-05-24T01:21:28.440Z,25.00
2023-05-24T01:26:33.399Z,24.25
2023-05-24T01:31:39.178Z,25.25
2023-05-24T01:36:44.235Z,22.75
2023-05-24T01:42:07.895Z,22.75
2023-05-24T01:47:41.331Z,21.75
2023-05-24T01:52:47.492Z,18.25
2023-05-24T01:57:53.170Z,21.25
2023-05-24T02:02:59.378Z,21.00
2023-05-24T02:08:04.338Z,17.75
2023-05-24T02:13:09.752Z,25.00
2023-05-24T02:18:15.638Z,19.75
2023-05-24T02:23:20.423Z,18.75
2023-05-24T02:28:25.483Z,18.75
2023-05-24T02:33:31.289Z,22.50
2023-05-24T02:38:36.323Z,21.25
2023-05-24T02:43:41.447Z,22.50
2023-05-24T02:48:46.497Z,23.00
2023-05-24T02:53:51.466Z,20.00
2023-05-24T02:58:57.018Z,19.50
2023-05-24T03:04:02.442Z,21.00
2023-05-24T03:09:08.363Z,19.75
2023-05-24T03:14:13.300Z,16.00
2023-05-24T03:19:20.320Z,17.25
2023-05-24T03:24:27.543Z,21.25
2023-05-24T03:29:33.013Z,18.25
2023-05-24T03:34:38.172Z,20.00
2023-05-24T03:39:43.634Z,21.75
2023-05-24T03:45:09.136Z,19.25
2023-05-24T03:50:15.736Z,22.75
2023-05-24T03:55:20.580Z,18.50
2023-05-24T04:00:26.496Z,19.00
2023-05-24T04:05:31.608Z,21.75
2023-05-24T04:10:36.886Z,18.50
2023-05-24T04:15:42.091Z,18.00
2023-05-24T04:20:47.971Z,19.75
2023-05-24T04:25:52.492Z,17.25
2023-05-24T04:30:59.063Z,21.00
2023-05-24T04:36:03.789Z,20.00
2023-05-24T04:41:08.486Z,22.50
2023-05-24T04:46:13.088Z,19.00
2023-05-24T04:51:17.994Z,19.50
2023-05-24T04:56:22.769Z,17.00
2023-05-24T05:01:27.978Z,20.75
2023-05-24T05:06:33.745Z,17.50
2023-05-24T05:11:39.003Z,23.50
2023-05-24T05:16:44.404Z,18.25
2023-05-24T05:21:49.625Z,18.50
2023-05-24T05:26:54.672Z,20.00
2023-05-24T05:31:59.732Z,21.00
2023-05-24T05:37:04.746Z,21.75
2023-05-24T05:42:09.840Z,20.75
2023-05-24T05:47:14.990Z,19.00
2023-05-24T05:52:20.009Z,21.75
2023-05-24T05:57:25.670Z,20.75
2023-05-24T06:02:30.548Z,17.00
2023-05-24T06:07:37.091Z,18.50
2023-05-24T06:12:42.070Z,18.50
2023-05-24T06:17:49.406Z,18.25
2023-05-24T06:22:54.481Z,18.50
2023-05-24T06:27:59.660Z,19.75
2023-05-24T06:33:05.657Z,18.00
2023-05-24T06:38:10.762Z,20.50
2023-05-24T06:43:15.729Z,20.75
2023-05-24T06:48:20.790Z,15.25
2023-05-24T06:53:25.800Z,18.75
2023-05-24T06:58:30.860Z,16.50
2023-05-24T07:03:35.643Z,17.25
2023-05-24T07:08:40.630Z,20.00
2023-05-24T07:13:45.659Z,18.00
2023-05-24T07:18:50.568Z,20.00
2023-05-24T07:23:55.643Z,20.75
2023-05-24T07:29:00.423Z,21.25
2023-05-24T07:34:05.599Z,22.00
2023-05-24T07:39:17.050Z,20.00
2023-05-24T07:44:22.022Z,16.25
2023-05-24T07:49:26.860Z,19.00
2023-05-24T07:54:31.922Z,20.00
2023-05-24T07:59:36.521Z,20.00
2023-05-24T08:04:44.695Z,23.00
2023-05-24T08:09:49.659Z,20.75
2023-05-24T08:14:55.241Z,17.50
2023-05-24T08:20:00.351Z,21.50
2023-05-24T08:25:05.488Z,18.75
2023-05-24T08:30:10.654Z,21.25
2023-05-24T08:35:20.138Z,23.00
2023-05-24T08:40:27.860Z,18.50
2023-05-24T08:45:33.211Z,20.25
2023-05-24T08:50:37.985Z,20.75
2023-05-24T08:55:44.605Z,22.50
2023-05-24T09:00:49.840Z,21.00
2023-05-24T09:05:55.244Z,18.00
2023-05-24T09:11:01.534Z,26.25
2023-05-24T09:16:07.874Z,23.50
2023-05-24T09:21:13.534Z,24.50
2023-05-24T09:26:19.455Z,20.50
2023-05-24T09:31:34.080Z,21.50
2023-05-24T09:36:43.280Z,23.25
2023-05-24T09:41:57.032Z,24.75
2023-05-24T09:47:08.287Z,22.25
2023-05-24T09:52:16.153Z,28.50
2023-05-24T09:57:24.209Z,28.50
2023-05-24T10:02:35.485Z,25.75
2023-05-24T10:07:46.438Z,25.50
2023-05-24T10:12:52.444Z,23.50
2023-05-24T10:17:58.254Z,25.75
2023-05-24T10:23:05.740Z,24.75
2023-05-24T10:28:12.224Z,27.25
2023-05-24T10:33:18.266Z,25.50
2023-05-24T10:38:25.125Z,27.75
2023-05-24T10:43:29.901Z,26.75
2023-05-24T10:48:37.608Z,29.25
2023-05-24T10:53:42.808Z,28.50
2023-05-24T10:59:00.573Z,29.50
2023-05-24T11:04:19.051Z,29.00
2023-05-24T11:09:24.299Z,31.00
2023-05-24T11:14:32.754Z,31.75
2023-05-24T11:19:57.865Z,30.50
2023-05-24T11:25:07.352Z,33.50
2023-05-24T11:30:14.123Z,31.25
2023-05-24T11:35:20.595Z,31.50
2023-05-24T11:40:26.507Z,32.25
2023-05-24T11:45:31.503Z,30.75
2023-05-24T11:50:48.740Z,37.75
2023-05-24T11:55:56.007Z,44.50
2023-05-24T12:01:01.182Z,38.00
2023-05-24T12:06:06.347Z,37.00
2023-05-24T12:11:11.518Z,40.75
2023-05-24T12:16:17.870Z,39.50
2023-05-24T12:21:23.039Z,37.50
2023-05-24T12:26:28.300Z,37.50
2023-05-24T12:31:33.514Z,36.75
2023-05-24T12:36:38.439Z,36.00
2023-05-24T12:41:43.131Z,37.25
2023-05-24T12:46:48.029Z,41.25
2023-05-24T12:51:53.492Z,47.00
2023-05-24T12:56:58.503Z,49.75
2023-05-24T13:02:03.398Z,45.00
2023-05-24T13:07:08.090Z,46.00
2023-05-24T13:12:14.944Z,44.50
2023-05-24T13:17:19.965Z,48.75
2023-05-24T13:22:24.600Z,49.00
2023-05-24T13:27:29.323Z,52.25
2023-05-24T13:32:34.217Z,50.00
2023-05-24T13:37:39.317Z,59.25
2023-05-24T13:42:46.060Z,60.00
2023-05-24T13:47:50.179Z,58.75
2023-05-24T13:52:54.508Z,59.50
2023-05-24T13:57:59.119Z,64.25
2023-05-24T14:03:05.469Z,65.00
2023-05-24T14:08:10.416Z,65.75
2023-05-24T14:13:34.221Z,68.00
2023-05-24T14:18:39.668Z,71.25
2023-05-24T14:23:44.618Z,70.50
2023-05-24T14:28:49.261Z,77.75
2023-05-24T14:33:54.247Z,66.00
2023-05-24T14:38:58.798Z,69.00
2023-05-24T14:44:03.184Z,79.25
2023-05-24T14:49:07.801Z,72.75
2023-05-24T14:54:13.285Z,66.75
2023-05-24T14:59:17.778Z,80.33
2023-05-24T15:04:22.654Z,83.67
2023-05-24T15:09:28.344Z,74.67
2023-05-24T15:14:32.882Z,76.33
2023-05-24T15:19:37.536Z,83.00
2023-05-24T15:24:42.238Z,79.67
2023-05-24T15:29:47.007Z,85.00
2023-05-24T15:34:52.562Z,87.33
2023-05-24T15:39:57.174Z,91.00
2023-05-24T15:45:01.572Z,92.00
2023-05-24T15:50:06.017Z,96.67
2023-05-24T15:55:10.870Z,88.67
2023-05-24T16:00:15.373Z,97.00
2023-05-24T16:05:21.210Z,100.67
2023-05-24T16:10:25.923Z,98.67
2023-05-24T16:15:31.517Z,101.33
2023-05-24T16:20:36.856Z,103.67
2023-05-24T16:25:41.498Z,93.67
2023-05-24T16:30:46.475Z,103.00
2023-05-24T16:35:56.847Z,109.00
2023-05-24T16:41:01.324Z,108.00
2023-05-24T16:46:05.902Z,107.00
2023-05-24T16:51:10.435Z,113.67
2023-05-24T16:56:14.806Z,113.33
2023-05-24T17:01:19.249Z,118.00
2023-05-24T17:06:24.012Z,111.00
2023-05-24T17:11:28.654Z,115.00
2023-05-24T17:16:33.201Z,112.33
2023-05-24T17:21:38.219Z,111.00
2023-05-24T17:26:43.899Z,108.00
2023-05-24T17:31:48.798Z,126.75
2023-05-24T17:36:53.617Z,123.25
2023-05-24T17:41:58.003Z,115.75
2023-05-24T17:47:03.455Z,123.75
2023-05-24T17:52:08.127Z,135.00
2023-05-24T17:57:12.759Z,130.50
2023-05-24T18:02:17.489Z,128.50
2023-05-24T18:07:21.918Z,133.25
2023-05-24T18:12:26.866Z,134.00
2023-05-24T18:17:31.638Z,133.50
2023-05-24T18:22:35.946Z,141.50
2023-05-24T18:27:40.273Z,138.00
2023-05-24T18:33:02.858Z,126.50
2023-05-24T18:38:09.457Z,134.25
2023-05-24T18:43:14.449Z,129.50
2023-05-24T18:48:19.149Z,128.50
2023-05-24T18:53:23.693Z,126.50
2023-05-24T18:58:28.143Z,120.50
2023-05-24T19:03:32.668Z,134.50
2023-05-24T19:08:37.452Z,125.50
2023-05-24T19:13:42.165Z,123.50
2023-05-24T19:18:47.110Z,115.75
2023-05-24T19:23:51.722Z,113.00
2023-05-24T19:28:56.230Z,110.50
2023-05-24T19:34:01.279Z,102.67
2023-05-24T19:39:06.133Z,102.67
2023-05-24T19:44:10.623Z,106.00
2023-05-24T19:49:14.932Z,104.67
2023-05-24T19:54:19.373Z,102.00
2023-05-24T19:59:23.762Z,103.33
2023-05-24T20:04:28.257Z,92.67
2023-05-24T20:09:32.941Z,94.67
2023-05-24T20:14:37.417Z,94.67
2023-05-24T20:19:41.773Z,95.00
2023-05-24T20:24:46.211Z,90.67
2023-05-24T20:29:50.504Z,88.00
2023-05-24T20:34:55.014Z,89.33
2023-05-24T20:39:59.668Z,87.33
2023-05-24T20:45:04.932Z,89.00
2023-05-24T20:50:09.446Z,89.33
2023-05-24T20:55:13.831Z,85.33
2023-05-24T21:00:18.256Z,83.00
2023-05-24T21:05:22.670Z,82.67
2023-05-24T21:10:29.274Z,80.33
2023-05-24T21:15:33.757Z,78.00
2023-05-24T21:20:38.020Z,75.00
2023-05-24T21:25:42.639Z,75.67
2023-05-24T21:30:47.284Z,74.67
2023-05-24T21:35:51.796Z,72.67
2023-05-24T21:40:56.201Z,71.33
2023-05-24T21:46:00.600Z,69.75
2023-05-24T21:51:05.283Z,71.33
2023-05-24T21:56:09.713Z,69.00
2023-05-24T22:01:14.215Z,74.33
2023-05-24T22:06:18.488Z,73.00
2023-05-24T22:11:23.106Z,67.25
2023-05-24T22:16:27.479Z,63.00
2023-05-24T22:21:34.663Z,61.75
2023-05-24T22:26:39.538Z,63.75
2023-05-24T22:31:43.696Z,61.00
2023-05-24T22:36:48.032Z,64.75
2023-05-24T22:41:53.620Z,66.00
2023-05-24T22:46:58.228Z,61.00
2023-05-24T22:52:02.600Z,59.25
2023-05-24T22:57:07.572Z,62.50
2023-05-24T23:02:12.444Z,57.50
2023-05-24T23:07:17.056Z,57.25
2023-05-24T23:12:22.428Z,50.25
2023-05-24T23:17:27.791Z,52.75
2023-05-24T23:22:32.281Z,48.75
2023-05-24T23:27:36.852Z,50.25
2023-05-24T23:32:41.197Z,49.75
2023-05-24T23:37:45.754Z,46.50
2023-05-24T23:42:50.929Z,43.50
2023-05-24T23:47:55.587Z,46.25
2023-05-24T23:52:59.942Z,45.50
2023-05-24T23:58:04.947Z,41.50
